sensor_id;sensor_type;location;lat;lon;timestamp;P1;durP1;ratioP1;P2;durP2;ratioP2
16593;SDS011;8410;52.532;13.336;2022-07-22T00:01:49;8.75;;;7.95;;
16593;SDS011;8410;52.532;13.336;2022-07-22T00:04:18;8.63;;;7.90;;
16593;SDS011;8410;52.532;13.336;2022-07-22T00:06:47;8.80;;;8.00;;
16593;SDS011;8410;52.532;13.336;2022-07-22T00:09:14;9.20;;;8.40;;
16593;SDS011;8410;52.532;13.336;2022-07-22T00:11:42;9.82;;;7.82;;
16593;SDS011;8410;52.532;13.336;2022-07-22T00:14:10;8.07;;;7.40;;
16593;SDS011;8410;52.532;13.336;2022-07-22T00:16:39;8.68;;;7.00;;
16593;SDS011;8410;52.532;13.336;2022-07-22T00:19:07;6.88;;;6.30;;
16593;SDS011;8410;52.532;13.336;2022-07-22T00:21:36;6.65;;;6.03;;
16593;SDS011;8410;52.532;13.336;2022-07-22T00:24:05;6.70;;;5.97;;
16593;SDS011;8410;52.532;13.336;2022-07-22T00:26:33;7.07;;;6.32;;
16593;SDS011;8410;52.532;13.336;2022-07-22T00:29:01;6.30;;;5.80;;
16593;SDS011;8410;52.532;13.336;2022-07-22T00:31:29;6.72;;;6.20;;
16593;SDS011;8410;52.532;13.336;2022-07-22T00:33:58;6.75;;;6.18;;
16593;SDS011;8410;52.532;13.336;2022-07-22T00:36:28;14.02;;;5.70;;
16593;SDS011;8410;52.532;13.336;2022-07-22T00:38:57;6.30;;;5.70;;
16593;SDS011;8410;52.532;13.336;2022-07-22T00:41:26;6.13;;;5.60;;
16593;SDS011;8410;52.532;13.336;2022-07-22T00:43:57;6.32;;;5.72;;
16593;SDS011;8410;52.532;13.336;2022-07-22T00:46:28;6.60;;;5.50;;
16593;SDS011;8410;52.532;13.336;2022-07-22T00:48:58;6.18;;;5.55;;
16593;SDS011;8410;52.532;13.336;2022-07-22T00:51:27;6.10;;;5.50;;
16593;SDS011;8410;52.532;13.336;2022-07-22T00:53:58;6.25;;;5.75;;
16593;SDS011;8410;52.532;13.336;2022-07-22T00:56:28;5.75;;;5.25;;
16593;SDS011;8410;52.532;13.336;2022-07-22T00:58:57;8.18;;;6.03;;
16593;SDS011;8410;52.532;13.336;2022-07-22T01:01:27;5.78;;;5.25;;
16593;SDS011;8410;52.532;13.336;2022-07-22T01:03:56;5.78;;;5.38;;
16593;SDS011;8410;52.532;13.336;2022-07-22T01:06:26;5.80;;;5.30;;
16593;SDS011;8410;52.532;13.336;2022-07-22T01:08:55;5.85;;;5.30;;
16593;SDS011;8410;52.532;13.336;2022-07-22T01:11:25;7.28;;;5.32;;
16593;SDS011;8410;52.532;13.336;2022-07-22T01:13:54;6.18;;;5.68;;
16593;SDS011;8410;52.532;13.336;2022-07-22T01:16:24;6.90;;;5.40;;
16593;SDS011;8410;52.532;13.336;2022-07-22T01:18:52;6.88;;;6.22;;
16593;SDS011;8410;52.532;13.336;2022-07-22T01:21:23;5.40;;;4.95;;
16593;SDS011;8410;52.532;13.336;2022-07-22T01:23:51;5.15;;;4.57;;
16593;SDS011;8410;52.532;13.336;2022-07-22T01:26:19;7.32;;;5.63;;
16593;SDS011;8410;52.532;13.336;2022-07-22T01:28:47;4.72;;;4.25;;
16593;SDS011;8410;52.532;13.336;2022-07-22T01:31:15;4.95;;;4.43;;
16593;SDS011;8410;52.532;13.336;2022-07-22T01:33:43;5.13;;;4.68;;
16593;SDS011;8410;52.532;13.336;2022-07-22T01:36:11;5.50;;;5.00;;
16593;SDS011;8410;52.532;13.336;2022-07-22T01:38:40;5.30;;;4.90;;
16593;SDS011;8410;52.532;13.336;2022-07-22T01:41:08;8.10;;;5.10;;
16593;SDS011;8410;52.532;13.336;2022-07-22T01:43:36;4.88;;;4.57;;
16593;SDS011;8410;52.532;13.336;2022-07-22T01:46:04;5.10;;;4.60;;
16593;SDS011;8410;52.532;13.336;2022-07-22T01:48:33;5.70;;;4.80;;
16593;SDS011;8410;52.532;13.336;2022-07-22T01:51:01;6.07;;;4.72;;
16593;SDS011;8410;52.532;13.336;2022-07-22T01:53:29;5.20;;;4.30;;
16593;SDS011;8410;52.532;13.336;2022-07-22T01:55:58;5.63;;;5.10;;
16593;SDS011;8410;52.532;13.336;2022-07-22T01:58:26;5.00;;;4.60;;
16593;SDS011;8410;52.532;13.336;2022-07-22T02:00:54;5.57;;;4.97;;
16593;SDS011;8410;52.532;13.336;2022-07-22T02:03:22;5.22;;;4.80;;
16593;SDS011;8410;52.532;13.336;2022-07-22T02:05:50;6.95;;;5.45;;
16593;SDS011;8410;52.532;13.336;2022-07-22T02:08:18;5.60;;;5.10;;
16593;SDS011;8410;52.532;13.336;2022-07-22T02:10:45;5.28;;;4.72;;
16593;SDS011;8410;52.532;13.336;2022-07-22T02:13:15;5.97;;;4.97;;
16593;SDS011;8410;52.532;13.336;2022-07-22T02:15:43;5.22;;;4.57;;
16593;SDS011;8410;52.532;13.336;2022-07-22T02:18:11;5.13;;;4.72;;
16593;SDS011;8410;52.532;13.336;2022-07-22T02:20:40;7.28;;;4.63;;
16593;SDS011;8410;52.532;13.336;2022-07-22T02:23:09;5.50;;;5.10;;
16593;SDS011;8410;52.532;13.336;2022-07-22T02:25:38;4.93;;;4.53;;
16593;SDS011;8410;52.532;13.336;2022-07-22T02:28:08;5.65;;;5.25;;
16593;SDS011;8410;52.532;13.336;2022-07-22T02:30:37;6.00;;;5.10;;
16593;SDS011;8410;52.532;13.336;2022-07-22T02:33:05;5.93;;;5.43;;
16593;SDS011;8410;52.532;13.336;2022-07-22T02:35:34;4.78;;;4.38;;
16593;SDS011;8410;52.532;13.336;2022-07-22T02:38:02;5.50;;;5.00;;
16593;SDS011;8410;52.532;13.336;2022-07-22T02:40:30;5.63;;;5.15;;
16593;SDS011;8410;52.532;13.336;2022-07-22T02:42:58;7.18;;;5.78;;
16593;SDS011;8410;52.532;13.336;2022-07-22T02:45:27;5.50;;;5.10;;
16593;SDS011;8410;52.532;13.336;2022-07-22T02:47:56;5.90;;;5.32;;
16593;SDS011;8410;52.532;13.336;2022-07-22T02:50:24;6.35;;;5.78;;
16593;SDS011;8410;52.532;13.336;2022-07-22T02:52:53;5.88;;;5.28;;
16593;SDS011;8410;52.532;13.336;2022-07-22T02:55:21;6.90;;;6.20;;
16593;SDS011;8410;52.532;13.336;2022-07-22T02:57:49;11.50;;;5.90;;
16593;SDS011;8410;52.532;13.336;2022-07-22T03:00:17;9.45;;;5.50;;
16593;SDS011;8410;52.532;13.336;2022-07-22T03:02:48;6.88;;;5.78;;
16593;SDS011;8410;52.532;13.336;2022-07-22T03:05:17;6.35;;;5.80;;
16593;SDS011;8410;52.532;13.336;2022-07-22T03:07:44;7.85;;;5.53;;
16593;SDS011;8410;52.532;13.336;2022-07-22T03:10:14;6.10;;;5.28;;
16593;SDS011;8410;52.532;13.336;2022-07-22T03:12:42;6.05;;;5.45;;
16593;SDS011;8410;52.532;13.336;2022-07-22T03:15:10;6.47;;;5.97;;
16593;SDS011;8410;52.532;13.336;2022-07-22T03:17:38;6.45;;;5.95;;
16593;SDS011;8410;52.532;13.336;2022-07-22T03:20:07;7.03;;;6.22;;
16593;SDS011;8410;52.532;13.336;2022-07-22T03:22:38;7.82;;;6.47;;
16593;SDS011;8410;52.532;13.336;2022-07-22T03:25:06;7.35;;;6.85;;
16593;SDS011;8410;52.532;13.336;2022-07-22T03:27:35;5.78;;;5.13;;
16593;SDS011;8410;52.532;13.336;2022-07-22T03:30:03;7.68;;;6.97;;
16593;SDS011;8410;52.532;13.336;2022-07-22T03:32:33;7.32;;;6.63;;
16593;SDS011;8410;52.532;13.336;2022-07-22T03:35:01;8.55;;;6.97;;
16593;SDS011;8410;52.532;13.336;2022-07-22T03:37:30;6.80;;;6.15;;
16593;SDS011;8410;52.532;13.336;2022-07-22T03:39:59;7.70;;;7.05;;
16593;SDS011;8410;52.532;13.336;2022-07-22T03:42:27;5.43;;;4.80;;
16593;SDS011;8410;52.532;13.336;2022-07-22T03:44:55;6.75;;;6.15;;
16593;SDS011;8410;52.532;13.336;2022-07-22T03:47:23;8.07;;;7.47;;
16593;SDS011;8410;52.532;13.336;2022-07-22T03:49:51;5.78;;;5.30;;
16593;SDS011;8410;52.532;13.336;2022-07-22T03:52:20;7.35;;;6.63;;
16593;SDS011;8410;52.532;13.336;2022-07-22T03:54:47;6.55;;;5.93;;
16593;SDS011;8410;52.532;13.336;2022-07-22T03:57:17;6.30;;;5.80;;
16593;SDS011;8410;52.532;13.336;2022-07-22T03:59:45;6.53;;;6.03;;
16593;SDS011;8410;52.532;13.336;2022-07-22T04:02:13;8.18;;;7.43;;
16593;SDS011;8410;52.532;13.336;2022-07-22T04:04:42;7.95;;;7.25;;
16593;SDS011;8410;52.532;13.336;2022-07-22T04:07:10;7.82;;;7.13;;
16593;SDS011;8410;52.532;13.336;2022-07-22T04:09:37;15.40;;;9.20;;
16593;SDS011;8410;52.532;13.336;2022-07-22T04:12:05;8.70;;;7.97;;
16593;SDS011;8410;52.532;13.336;2022-07-22T04:14:35;8.73;;;7.80;;
16593;SDS011;8410;52.532;13.336;2022-07-22T04:17:03;8.25;;;7.47;;
16593;SDS011;8410;52.532;13.336;2022-07-22T04:19:32;9.70;;;8.80;;
16593;SDS011;8410;52.532;13.336;2022-07-22T04:22:00;9.52;;;8.73;;
16593;SDS011;8410;52.532;13.336;2022-07-22T04:24:28;8.02;;;7.20;;
16593;SDS011;8410;52.532;13.336;2022-07-22T04:26:56;9.85;;;9.05;;
16593;SDS011;8410;52.532;13.336;2022-07-22T04:29:23;8.63;;;7.93;;
16593;SDS011;8410;52.532;13.336;2022-07-22T04:31:53;10.95;;;9.98;;
16593;SDS011;8410;52.532;13.336;2022-07-22T04:34:27;9.27;;;5.80;;
16593;SDS011;8410;52.532;13.336;2022-07-22T04:36:55;7.70;;;5.90;;
16593;SDS011;8410;52.532;13.336;2022-07-22T04:39:23;8.32;;;7.05;;
16593;SDS011;8410;52.532;13.336;2022-07-22T04:41:51;10.50;;;9.68;;
16593;SDS011;8410;52.532;13.336;2022-07-22T04:44:19;9.20;;;5.88;;
16593;SDS011;8410;52.532;13.336;2022-07-22T04:46:46;6.80;;;6.20;;
16593;SDS011;8410;52.532;13.336;2022-07-22T04:49:16;6.88;;;6.28;;
16593;SDS011;8410;52.532;13.336;2022-07-22T04:51:44;7.40;;;6.78;;
16593;SDS011;8410;52.532;13.336;2022-07-22T04:54:12;6.78;;;6.18;;
16593;SDS011;8410;52.532;13.336;2022-07-22T04:56:40;9.88;;;9.07;;
16593;SDS011;8410;52.532;13.336;2022-07-22T04:59:09;9.90;;;8.90;;
16593;SDS011;8410;52.532;13.336;2022-07-22T05:01:37;10.55;;;9.65;;
16593;SDS011;8410;52.532;13.336;2022-07-22T05:04:05;11.65;;;6.05;;
16593;SDS011;8410;52.532;13.336;2022-07-22T05:06:35;10.35;;;9.50;;
16593;SDS011;8410;52.532;13.336;2022-07-22T05:09:02;8.27;;;7.53;;
16593;SDS011;8410;52.532;13.336;2022-07-22T05:11:30;17.15;;;7.85;;
16593;SDS011;8410;52.532;13.336;2022-07-22T05:13:58;12.40;;;7.22;;
16593;SDS011;8410;52.532;13.336;2022-07-22T05:16:26;10.30;;;9.20;;
16593;SDS011;8410;52.532;13.336;2022-07-22T05:18:54;16.00;;;9.32;;
16593;SDS011;8410;52.532;13.336;2022-07-22T05:21:23;14.02;;;6.95;;
16593;SDS011;8410;52.532;13.336;2022-07-22T05:23:52;10.60;;;9.32;;
16593;SDS011;8410;52.532;13.336;2022-07-22T05:26:20;13.85;;;7.43;;
16593;SDS011;8410;52.532;13.336;2022-07-22T05:28:51;14.60;;;8.02;;
16593;SDS011;8410;52.532;13.336;2022-07-22T05:31:20;13.25;;;8.77;;
16593;SDS011;8410;52.532;13.336;2022-07-22T05:33:48;10.98;;;6.55;;
16593;SDS011;8410;52.532;13.336;2022-07-22T05:36:16;10.63;;;9.52;;
16593;SDS011;8410;52.532;13.336;2022-07-22T05:38:45;11.93;;;7.43;;
16593;SDS011;8410;52.532;13.336;2022-07-22T05:41:14;12.23;;;10.98;;
16593;SDS011;8410;52.532;13.336;2022-07-22T05:43:42;9.32;;;7.18;;
16593;SDS011;8410;52.532;13.336;2022-07-22T05:46:10;11.05;;;10.15;;
16593;SDS011;8410;52.532;13.336;2022-07-22T05:48:38;9.65;;;8.77;;
16593;SDS011;8410;52.532;13.336;2022-07-22T05:51:09;9.80;;;8.80;;
16593;SDS011;8410;52.532;13.336;2022-07-22T05:53:39;8.85;;;7.97;;
16593;SDS011;8410;52.532;13.336;2022-07-22T05:56:09;9.93;;;8.93;;
16593;SDS011;8410;52.532;13.336;2022-07-22T05:58:39;10.98;;;9.98;;
16593;SDS011;8410;52.532;13.336;2022-07-22T06:01:08;9.07;;;8.25;;
16593;SDS011;8410;52.532;13.336;2022-07-22T06:03:37;10.88;;;8.32;;
16593;SDS011;8410;52.532;13.336;2022-07-22T06:06:06;7.03;;;6.43;;
16593;SDS011;8410;52.532;13.336;2022-07-22T06:08:35;9.77;;;8.88;;
16593;SDS011;8410;52.532;13.336;2022-07-22T06:11:03;10.63;;;9.75;;
16593;SDS011;8410;52.532;13.336;2022-07-22T06:13:32;13.82;;;9.93;;
16593;SDS011;8410;52.532;13.336;2022-07-22T06:16:02;7.05;;;6.28;;
16593;SDS011;8410;52.532;13.336;2022-07-22T06:18:31;10.27;;;9.27;;
16593;SDS011;8410;52.532;13.336;2022-07-22T06:20:58;11.10;;;10.10;;
16593;SDS011;8410;52.532;13.336;2022-07-22T06:23:26;7.22;;;6.63;;
16593;SDS011;8410;52.532;13.336;2022-07-22T06:25:54;9.90;;;8.93;;
16593;SDS011;8410;52.532;13.336;2022-07-22T06:28:22;9.13;;;8.32;;
16593;SDS011;8410;52.532;13.336;2022-07-22T06:30:50;10.65;;;9.80;;
16593;SDS011;8410;52.532;13.336;2022-07-22T06:33:19;9.77;;;9.05;;
16593;SDS011;8410;52.532;13.336;2022-07-22T06:35:47;7.57;;;6.97;;
16593;SDS011;8410;52.532;13.336;2022-07-22T06:38:15;6.70;;;6.25;;
16593;SDS011;8410;52.532;13.336;2022-07-22T06:40:56;7.53;;;6.82;;
16593;SDS011;8410;52.532;13.336;2022-07-22T06:43:24;10.18;;;9.27;;
16593;SDS011;8410;52.532;13.336;2022-07-22T06:45:53;10.13;;;7.90;;
16593;SDS011;8410;52.532;13.336;2022-07-22T06:48:23;10.23;;;9.13;;
16593;SDS011;8410;52.532;13.336;2022-07-22T06:50:51;8.02;;;7.18;;
16593;SDS011;8410;52.532;13.336;2022-07-22T06:53:19;10.15;;;9.10;;
16593;SDS011;8410;52.532;13.336;2022-07-22T06:55:47;9.10;;;7.88;;
16593;SDS011;8410;52.532;13.336;2022-07-22T06:58:15;9.27;;;7.60;;
16593;SDS011;8410;52.532;13.336;2022-07-22T07:00:43;13.20;;;10.63;;
16593;SDS011;8410;52.532;13.336;2022-07-22T07:03:11;7.70;;;7.00;;
16593;SDS011;8410;52.532;13.336;2022-07-22T07:06:00;7.88;;;7.22;;
16593;SDS011;8410;52.532;13.336;2022-07-22T07:08:29;8.13;;;6.65;;
16593;SDS011;8410;52.532;13.336;2022-07-22T07:10:57;9.82;;;8.93;;
16593;SDS011;8410;52.532;13.336;2022-07-22T07:13:25;10.57;;;8.48;;
16593;SDS011;8410;52.532;13.336;2022-07-22T07:15:53;9.65;;;8.85;;
16593;SDS011;8410;52.532;13.336;2022-07-22T07:18:21;7.95;;;7.18;;
16593;SDS011;8410;52.532;13.336;2022-07-22T07:20:49;8.55;;;7.80;;
16593;SDS011;8410;52.532;13.336;2022-07-22T07:23:18;8.63;;;7.85;;
16593;SDS011;8410;52.532;13.336;2022-07-22T07:25:47;10.32;;;9.50;;
16593;SDS011;8410;52.532;13.336;2022-07-22T07:28:15;7.30;;;6.70;;
16593;SDS011;8410;52.532;13.336;2022-07-22T07:30:45;7.80;;;7.20;;
16593;SDS011;8410;52.532;13.336;2022-07-22T07:33:14;7.50;;;6.90;;
16593;SDS011;8410;52.532;13.336;2022-07-22T07:35:41;9.05;;;8.25;;
16593;SDS011;8410;52.532;13.336;2022-07-22T07:38:09;8.85;;;7.97;;
16593;SDS011;8410;52.532;13.336;2022-07-22T07:40:39;8.13;;;7.32;;
16593;SDS011;8410;52.532;13.336;2022-07-22T07:43:07;8.13;;;7.53;;
16593;SDS011;8410;52.532;13.336;2022-07-22T07:45:35;9.13;;;7.07;;
16593;SDS011;8410;52.532;13.336;2022-07-22T07:48:05;6.93;;;6.32;;
16593;SDS011;8410;52.532;13.336;2022-07-22T07:50:33;8.30;;;7.55;;
16593;SDS011;8410;52.532;13.336;2022-07-22T07:53:01;10.70;;;6.82;;
16593;SDS011;8410;52.532;13.336;2022-07-22T07:55:30;8.35;;;6.18;;
16593;SDS011;8410;52.532;13.336;2022-07-22T07:58:00;10.73;;;6.43;;
16593;SDS011;8410;52.532;13.336;2022-07-22T08:00:28;17.67;;;6.28;;
16593;SDS011;8410;52.532;13.336;2022-07-22T08:02:58;7.03;;;6.35;;
16593;SDS011;8410;52.532;13.336;2022-07-22T08:05:28;7.57;;;6.47;;
16593;SDS011;8410;52.532;13.336;2022-07-22T08:07:56;7.43;;;6.40;;
16593;SDS011;8410;52.532;13.336;2022-07-22T08:10:24;6.88;;;6.28;;
16593;SDS011;8410;52.532;13.336;2022-07-22T08:13:17;8.02;;;5.55;;
16593;SDS011;8410;52.532;13.336;2022-07-22T08:15:45;7.85;;;5.43;;
16593;SDS011;8410;52.532;13.336;2022-07-22T08:18:13;7.80;;;6.20;;
16593;SDS011;8410;52.532;13.336;2022-07-22T08:20:42;5.60;;;5.20;;
16593;SDS011;8410;52.532;13.336;2022-07-22T08:23:09;9.32;;;5.57;;
16593;SDS011;8410;52.532;13.336;2022-07-22T08:25:38;6.38;;;5.10;;
16593;SDS011;8410;52.532;13.336;2022-07-22T08:28:06;5.53;;;5.03;;
16593;SDS011;8410;52.532;13.336;2022-07-22T08:30:36;5.80;;;5.18;;
16593;SDS011;8410;52.532;13.336;2022-07-22T08:33:05;5.85;;;5.25;;
16593;SDS011;8410;52.532;13.336;2022-07-22T08:35:33;5.97;;;5.00;;
16593;SDS011;8410;52.532;13.336;2022-07-22T08:38:01;5.72;;;5.20;;
16593;SDS011;8410;52.532;13.336;2022-07-22T08:40:29;5.60;;;5.18;;
16593;SDS011;8410;52.532;13.336;2022-07-22T08:42:57;5.40;;;5.00;;
16593;SDS011;8410;52.532;13.336;2022-07-22T08:45:29;61.75;;;10.88;;
16593;SDS011;8410;52.532;13.336;2022-07-22T08:47:59;10.25;;;6.38;;
16593;SDS011;8410;52.532;13.336;2022-07-22T08:50:29;11.73;;;7.43;;
16593;SDS011;8410;52.532;13.336;2022-07-22T08:52:57;13.65;;;6.38;;
16593;SDS011;8410;52.532;13.336;2022-07-22T08:55:25;34.13;;;8.43;;
16593;SDS011;8410;52.532;13.336;2022-07-22T08:57:53;23.88;;;6.75;;
16593;SDS011;8410;52.532;13.336;2022-07-22T09:00:21;30.95;;;7.78;;
16593;SDS011;8410;52.532;13.336;2022-07-22T09:02:50;15.38;;;6.35;;
16593;SDS011;8410;52.532;13.336;2022-07-22T09:05:19;9.30;;;4.78;;
16593;SDS011;8410;52.532;13.336;2022-07-22T09:08:07;17.52;;;6.05;;
16593;SDS011;8410;52.532;13.336;2022-07-22T09:10:35;12.07;;;6.57;;
16593;SDS011;8410;52.532;13.336;2022-07-22T09:13:04;14.00;;;6.18;;
16593;SDS011;8410;52.532;13.336;2022-07-22T09:15:37;11.75;;;5.75;;
16593;SDS011;8410;52.532;13.336;2022-07-22T09:18:12;9.35;;;5.18;;
16593;SDS011;8410;52.532;13.336;2022-07-22T09:20:41;12.13;;;5.55;;
16593;SDS011;8410;52.532;13.336;2022-07-22T09:23:11;11.10;;;5.13;;
16593;SDS011;8410;52.532;13.336;2022-07-22T09:25:43;10.32;;;5.32;;
16593;SDS011;8410;52.532;13.336;2022-07-22T09:28:17;6.25;;;4.90;;
16593;SDS011;8410;52.532;13.336;2022-07-22T09:30:51;5.20;;;4.70;;
16593;SDS011;8410;52.532;13.336;2022-07-22T09:33:23;4.90;;;4.50;;
16593;SDS011;8410;52.532;13.336;2022-07-22T09:36:00;4.15;;;3.85;;
16593;SDS011;8410;52.532;13.336;2022-07-22T09:38:31;5.38;;;4.05;;
16593;SDS011;8410;52.532;13.336;2022-07-22T09:41:01;5.53;;;3.85;;
16593;SDS011;8410;52.532;13.336;2022-07-22T09:43:32;3.60;;;3.28;;
16593;SDS011;8410;52.532;13.336;2022-07-22T09:46:03;7.43;;;3.97;;
16593;SDS011;8410;52.532;13.336;2022-07-22T09:48:32;3.88;;;3.58;;
16593;SDS011;8410;52.532;13.336;2022-07-22T09:51:01;5.63;;;3.78;;
16593;SDS011;8410;52.532;13.336;2022-07-22T09:53:30;4.00;;;3.70;;
16593;SDS011;8410;52.532;13.336;2022-07-22T09:56:01;3.55;;;3.20;;
16593;SDS011;8410;52.532;13.336;2022-07-22T09:58:32;4.28;;;3.38;;
16593;SDS011;8410;52.532;13.336;2022-07-22T10:01:02;6.68;;;3.33;;
16593;SDS011;8410;52.532;13.336;2022-07-22T10:03:34;5.45;;;3.50;;
16593;SDS011;8410;52.532;13.336;2022-07-22T10:06:07;3.35;;;3.05;;
16593;SDS011;8410;52.532;13.336;2022-07-22T10:08:36;4.40;;;3.60;;
16593;SDS011;8410;52.532;13.336;2022-07-22T10:11:06;3.33;;;3.05;;
16593;SDS011;8410;52.532;13.336;2022-07-22T10:13:34;3.22;;;2.72;;
16593;SDS011;8410;52.532;13.336;2022-07-22T10:16:07;3.72;;;3.22;;
16593;SDS011;8410;52.532;13.336;2022-07-22T10:18:36;4.78;;;3.55;;
16593;SDS011;8410;52.532;13.336;2022-07-22T10:21:07;7.05;;;2.75;;
16593;SDS011;8410;52.532;13.336;2022-07-22T10:23:36;3.83;;;3.15;;
16593;SDS011;8410;52.532;13.336;2022-07-22T10:26:45;3.90;;;2.95;;
16593;SDS011;8410;52.532;13.336;2022-07-22T10:29:25;4.07;;;3.00;;
16593;SDS011;8410;52.532;13.336;2022-07-22T10:35:19;3.67;;;2.80;;
16593;SDS011;8410;52.532;13.336;2022-07-22T10:37:54;3.05;;;2.78;;
16593;SDS011;8410;52.532;13.336;2022-07-22T10:40:25;2.75;;;2.55;;
16593;SDS011;8410;52.532;13.336;2022-07-22T10:43:02;4.40;;;2.97;;
16593;SDS011;8410;52.532;13.336;2022-07-22T10:45:40;4.10;;;2.67;;
16593;SDS011;8410;52.532;13.336;2022-07-22T10:48:14;3.33;;;3.03;;
16593;SDS011;8410;52.532;13.336;2022-07-22T10:50:49;4.00;;;2.63;;
16593;SDS011;8410;52.532;13.336;2022-07-22T10:53:23;3.67;;;3.30;;
16593;SDS011;8410;52.532;13.336;2022-07-22T10:56:07;5.30;;;3.17;;
16593;SDS011;8410;52.532;13.336;2022-07-22T10:58:43;2.95;;;2.75;;
16593;SDS011;8410;52.532;13.336;2022-07-22T11:01:15;3.50;;;3.20;;
16593;SDS011;8410;52.532;13.336;2022-07-22T11:03:47;3.30;;;3.10;;
16593;SDS011;8410;52.532;13.336;2022-07-22T11:06:27;3.67;;;3.38;;
16593;SDS011;8410;52.532;13.336;2022-07-22T11:08:59;5.65;;;2.83;;
16593;SDS011;8410;52.532;13.336;2022-07-22T11:11:33;3.80;;;3.50;;
16593;SDS011;8410;52.532;13.336;2022-07-22T11:14:11;4.30;;;3.80;;
16593;SDS011;8410;52.532;13.336;2022-07-22T11:16:41;3.70;;;3.42;;
16593;SDS011;8410;52.532;13.336;2022-07-22T11:19:11;4.22;;;3.78;;
16593;SDS011;8410;52.532;13.336;2022-07-22T11:21:40;4.70;;;4.30;;
16593;SDS011;8410;52.532;13.336;2022-07-22T11:24:12;4.68;;;4.30;;
16593;SDS011;8410;52.532;13.336;2022-07-22T11:26:42;5.07;;;4.60;;
16593;SDS011;8410;52.532;13.336;2022-07-22T11:29:15;4.72;;;4.15;;
16593;SDS011;8410;52.532;13.336;2022-07-22T11:31:45;4.55;;;4.20;;
16593;SDS011;8410;52.532;13.336;2022-07-22T11:34:14;4.72;;;4.32;;
16593;SDS011;8410;52.532;13.336;2022-07-22T11:36:44;4.35;;;3.95;;
16593;SDS011;8410;52.532;13.336;2022-07-22T11:39:17;3.90;;;3.45;;
16593;SDS011;8410;52.532;13.336;2022-07-22T11:41:49;3.75;;;3.40;;
16593;SDS011;8410;52.532;13.336;2022-07-22T11:44:19;2.97;;;2.78;;
16593;SDS011;8410;52.532;13.336;2022-07-22T11:46:48;3.28;;;3.08;;
16593;SDS011;8410;52.532;13.336;2022-07-22T11:49:18;4.22;;;3.17;;
16593;SDS011;8410;52.532;13.336;2022-07-22T11:51:48;3.90;;;3.50;;
16593;SDS011;8410;52.532;13.336;2022-07-22T11:54:20;3.10;;;2.90;;
16593;SDS011;8410;52.532;13.336;2022-07-22T11:56:48;4.07;;;3.50;;
16593;SDS011;8410;52.532;13.336;2022-07-22T11:59:22;5.15;;;3.47;;
16593;SDS011;8410;52.532;13.336;2022-07-22T12:01:50;5.50;;;2.95;;
16593;SDS011;8410;52.532;13.336;2022-07-22T12:04:19;3.90;;;2.97;;
16593;SDS011;8410;52.532;13.336;2022-07-22T12:06:50;3.25;;;3.05;;
16593;SDS011;8410;52.532;13.336;2022-07-22T12:09:23;3.58;;;3.20;;
16593;SDS011;8410;52.532;13.336;2022-07-22T12:11:56;3.22;;;3.03;;
16593;SDS011;8410;52.532;13.336;2022-07-22T12:14:25;6.20;;;3.20;;
16593;SDS011;8410;52.532;13.336;2022-07-22T12:16:56;3.92;;;3.08;;
16593;SDS011;8410;52.532;13.336;2022-07-22T12:19:27;3.58;;;3.05;;
16593;SDS011;8410;52.532;13.336;2022-07-22T12:22:00;4.10;;;2.95;;
16593;SDS011;8410;52.532;13.336;2022-07-22T12:24:33;3.60;;;3.30;;
16593;SDS011;8410;52.532;13.336;2022-07-22T12:27:04;3.50;;;3.20;;
16593;SDS011;8410;52.532;13.336;2022-07-22T12:29:41;3.50;;;3.20;;
16593;SDS011;8410;52.532;13.336;2022-07-22T12:32:14;3.40;;;3.10;;
16593;SDS011;8410;52.532;13.336;2022-07-22T12:34:45;3.20;;;2.88;;
16593;SDS011;8410;52.532;13.336;2022-07-22T12:37:25;2.85;;;2.65;;
16593;SDS011;8410;52.532;13.336;2022-07-22T12:39:57;3.25;;;2.42;;
16593;SDS011;8410;52.532;13.336;2022-07-22T12:42:28;2.90;;;2.47;;
16593;SDS011;8410;52.532;13.336;2022-07-22T12:45:00;2.60;;;2.40;;
16593;SDS011;8410;52.532;13.336;2022-07-22T12:47:38;4.68;;;2.65;;
16593;SDS011;8410;52.532;13.336;2022-07-22T12:50:16;2.40;;;2.20;;
16593;SDS011;8410;52.532;13.336;2022-07-22T12:52:51;2.30;;;2.20;;
16593;SDS011;8410;52.532;13.336;2022-07-22T12:55:43;2.30;;;2.10;;
16593;SDS011;8410;52.532;13.336;2022-07-22T12:58:15;3.63;;;2.00;;
16593;SDS011;8410;52.532;13.336;2022-07-22T13:00:45;3.50;;;2.10;;
16593;SDS011;8410;52.532;13.336;2022-07-22T13:03:15;2.10;;;2.00;;
16593;SDS011;8410;52.532;13.336;2022-07-22T13:05:46;2.05;;;1.95;;
16593;SDS011;8410;52.532;13.336;2022-07-22T13:08:14;1.98;;;1.88;;
16593;SDS011;8410;52.532;13.336;2022-07-22T13:10:44;1.98;;;1.80;;
16593;SDS011;8410;52.532;13.336;2022-07-22T13:13:12;4.57;;;1.90;;
16593;SDS011;8410;52.532;13.336;2022-07-22T13:15:40;3.38;;;1.95;;
16593;SDS011;8410;52.532;13.336;2022-07-22T13:18:08;2.35;;;1.88;;
16593;SDS011;8410;52.532;13.336;2022-07-22T13:20:36;2.30;;;2.10;;
16593;SDS011;8410;52.532;13.336;2022-07-22T13:23:04;1.90;;;1.80;;
16593;SDS011;8410;52.532;13.336;2022-07-22T13:25:33;3.47;;;2.10;;
16593;SDS011;8410;52.532;13.336;2022-07-22T13:28:03;2.63;;;2.30;;
16593;SDS011;8410;52.532;13.336;2022-07-22T13:30:31;2.45;;;2.25;;
16593;SDS011;8410;52.532;13.336;2022-07-22T13:32:59;2.05;;;1.95;;
16593;SDS011;8410;52.532;13.336;2022-07-22T13:35:27;4.28;;;2.95;;
16593;SDS011;8410;52.532;13.336;2022-07-22T13:37:56;3.97;;;3.63;;
16593;SDS011;8410;52.532;13.336;2022-07-22T13:40:25;1.73;;;1.63;;
16593;SDS011;8410;52.532;13.336;2022-07-22T13:42:53;1.90;;;1.80;;
16593;SDS011;8410;52.532;13.336;2022-07-22T13:45:23;1.83;;;1.70;;
16593;SDS011;8410;52.532;13.336;2022-07-22T13:47:50;1.80;;;1.70;;
16593;SDS011;8410;52.532;13.336;2022-07-22T13:50:18;1.75;;;1.60;;
16593;SDS011;8410;52.532;13.336;2022-07-22T13:52:46;1.95;;;1.58;;
16593;SDS011;8410;52.532;13.336;2022-07-22T13:55:14;1.60;;;1.50;;
16593;SDS011;8410;52.532;13.336;2022-07-22T13:57:42;1.75;;;1.40;;
16593;SDS011;8410;52.532;13.336;2022-07-22T14:00:11;1.70;;;1.60;;
16593;SDS011;8410;52.532;13.336;2022-07-22T14:02:42;8.73;;;2.30;;
16593;SDS011;8410;52.532;13.336;2022-07-22T14:05:11;2.50;;;1.92;;
16593;SDS011;8410;52.532;13.336;2022-07-22T14:07:40;2.08;;;1.70;;
16593;SDS011;8410;52.532;13.336;2022-07-22T14:10:09;1.80;;;1.70;;
16593;SDS011;8410;52.532;13.336;2022-07-22T14:12:37;3.35;;;1.83;;
16593;SDS011;8410;52.532;13.336;2022-07-22T14:15:05;2.25;;;1.80;;
16593;SDS011;8410;52.532;13.336;2022-07-22T14:17:34;2.03;;;1.83;;
16593;SDS011;8410;52.532;13.336;2022-07-22T14:20:05;2.22;;;1.70;;
16593;SDS011;8410;52.532;13.336;2022-07-22T14:22:34;1.55;;;1.45;;
16593;SDS011;8410;52.532;13.336;2022-07-22T14:25:02;3.00;;;1.80;;
16593;SDS011;8410;52.532;13.336;2022-07-22T14:27:31;1.90;;;1.60;;
16593;SDS011;8410;52.532;13.336;2022-07-22T14:29:59;4.15;;;1.85;;
16593;SDS011;8410;52.532;13.336;2022-07-22T14:32:27;3.47;;;1.90;;
16593;SDS011;8410;52.532;13.336;2022-07-22T14:34:55;1.88;;;1.77;;
16593;SDS011;8410;52.532;13.336;2022-07-22T14:37:24;2.78;;;1.50;;
16593;SDS011;8410;52.532;13.336;2022-07-22T14:39:53;2.17;;;1.98;;
16593;SDS011;8410;52.532;13.336;2022-07-22T14:42:21;1.85;;;1.50;;
16593;SDS011;8410;52.532;13.336;2022-07-22T14:44:49;2.38;;;1.80;;
16593;SDS011;8410;52.532;13.336;2022-07-22T14:47:17;1.63;;;1.52;;
16593;SDS011;8410;52.532;13.336;2022-07-22T14:49:45;2.05;;;1.48;;
16593;SDS011;8410;52.532;13.336;2022-07-22T14:52:12;3.33;;;1.55;;
16593;SDS011;8410;52.532;13.336;2022-07-22T14:54:42;1.42;;;1.33;;
16593;SDS011;8410;52.532;13.336;2022-07-22T14:57:09;5.22;;;2.50;;
16593;SDS011;8410;52.532;13.336;2022-07-22T14:59:37;7.90;;;2.60;;
16593;SDS011;8410;52.532;13.336;2022-07-22T15:02:05;7.13;;;1.58;;
16593;SDS011;8410;52.532;13.336;2022-07-22T15:04:33;1.65;;;1.50;;